createdAt,value
2022-09-01T00:02:02.817Z,22.81
2022-09-01T00:04:29.501Z,22.74
2022-09-01T00:06:56.421Z,22.60
2022-09-01T00:09:23.693Z,22.59
2022-09-01T00:11:54.438Z,22.39
2022-09-01T00:14:30.099Z,22.71
2022-09-01T00:17:03.204Z,22.74
2022-09-01T00:19:30.288Z,22.36
2022-09-01T00:21:57.533Z,22.47
2022-09-01T00:24:26.402Z,22.38
2022-09-01T00:26:54.940Z,22.52
2022-09-01T00:29:22.646Z,22.52
2022-09-01T00:31:50.593Z,22.32
2022-09-01T00:34:17.634Z,22.64
2022-09-01T00:36:44.707Z,22.62
2022-09-01T00:39:12.323Z,22.36
2022-09-01T00:41:42.767Z,22.24
2022-09-01T00:44:13.702Z,22.13
2022-09-01T00:46:55.099Z,22.23
2022-09-01T00:49:45.056Z,22.17
2022-09-01T00:52:33.921Z,21.81
2022-09-01T00:55:07.732Z,21.90
2022-09-01T00:57:34.507Z,21.71
2022-09-01T01:00:11.710Z,21.92
2022-09-01T01:02:41.369Z,21.85
2022-09-01T01:05:14.409Z,21.71
2022-09-01T01:07:47.662Z,21.72
2022-09-01T01:10:17.066Z,21.86
2022-09-01T01:12:44.888Z,22.05
2022-09-01T01:15:13.349Z,21.85
2022-09-01T01:17:40.656Z,21.71
2022-09-01T01:20:27.979Z,21.50
2022-09-01T01:23:15.915Z,21.52
2022-09-01T01:25:46.484Z,21.74
2022-09-01T01:28:15.780Z,21.20
2022-09-01T01:30:52.508Z,21.34
2022-09-01T01:33:34.619Z,21.47
2022-09-01T01:36:01.895Z,21.20
2022-09-01T01:38:30.169Z,21.40
2022-09-01T01:40:57.415Z,21.30
2022-09-01T01:43:26.830Z,21.37
2022-09-01T01:45:59.239Z,20.99
2022-09-01T01:48:26.447Z,21.01
2022-09-01T01:50:55.037Z,20.98
2022-09-01T01:53:22.552Z,21.31
2022-09-01T01:55:49.696Z,21.42
2022-09-01T01:58:21.132Z,21.25
2022-09-01T02:00:49.739Z,21.13
2022-09-01T02:03:20.272Z,21.15
2022-09-01T02:05:49.271Z,21.15
2022-09-01T02:08:22.680Z,21.43
2022-09-01T02:10:51.858Z,21.31
2022-09-01T02:13:21.085Z,21.36
2022-09-01T02:15:53.958Z,21.51
2022-09-01T02:18:27.151Z,21.51
2022-09-01T02:20:55.365Z,21.21
2022-09-01T02:23:25.858Z,21.15
2022-09-01T02:28:45.383Z,21.45
2022-09-01T02:31:12.498Z,21.30
2022-09-01T02:33:44.122Z,21.48
2022-09-01T02:36:15.314Z,21.25
2022-09-01T02:38:45.935Z,21.39
2022-09-01T02:41:14.517Z,21.21
2022-09-01T02:43:43.514Z,21.24
2022-09-01T02:46:10.409Z,21.30
2022-09-01T02:48:39.723Z,21.65
2022-09-01T02:51:10.863Z,21.35
2022-09-01T02:53:39.467Z,21.14
2022-09-01T02:56:12.077Z,21.71
2022-09-01T02:58:46.404Z,21.60
2022-09-01T03:01:22.093Z,21.54
2022-09-01T03:03:49.677Z,21.37
2022-09-01T03:06:18.476Z,21.28
2022-09-01T03:08:45.186Z,21.48
2022-09-01T03:11:13.261Z,21.42
2022-09-01T03:13:41.923Z,21.31
2022-09-01T03:16:09.795Z,21.28
2022-09-01T03:18:37.324Z,21.51
2022-09-01T03:21:06.191Z,21.71
2022-09-01T03:23:34.050Z,21.48
2022-09-01T03:26:02.300Z,21.43
2022-09-01T03:28:29.867Z,21.42
2022-09-01T03:30:58.139Z,21.04
2022-09-01T03:33:26.830Z,21.45
2022-09-01T03:35:54.270Z,21.56
2022-09-01T03:38:24.165Z,21.34
2022-09-01T03:41:02.054Z,21.48
2022-09-01T03:43:35.635Z,21.40
2022-09-01T03:46:03.440Z,21.39
2022-09-01T03:48:34.700Z,21.33
2022-09-01T03:51:04.558Z,21.63
2022-09-01T03:53:35.894Z,21.16
2022-09-01T03:56:05.794Z,21.46
2022-09-01T03:58:33.209Z,21.65
2022-09-01T04:01:03.247Z,21.53
2022-09-01T04:03:34.590Z,21.60
2022-09-01T04:06:04.789Z,21.74
2022-09-01T04:08:32.927Z,21.49
2022-09-01T04:11:24.194Z,21.73
2022-09-01T04:13:51.368Z,21.56
2022-09-01T04:16:40.123Z,21.31
2022-09-01T04:19:16.044Z,21.13
2022-09-01T04:22:03.302Z,21.48
2022-09-01T04:24:32.670Z,21.06
2022-09-01T04:27:02.414Z,21.44
2022-09-01T04:29:31.859Z,21.50
2022-09-01T04:32:05.584Z,21.29
2022-09-01T04:34:39.868Z,21.24
2022-09-01T04:37:09.371Z,21.14
2022-09-01T04:39:37.187Z,21.12
2022-09-01T04:42:09.485Z,21.28
2022-09-01T04:44:37.275Z,21.19
2022-09-01T04:47:03.951Z,21.15
2022-09-01T04:49:33.772Z,21.00
2022-09-01T04:52:00.946Z,20.96
2022-09-01T04:54:27.605Z,21.09
2022-09-01T04:56:55.048Z,20.76
2022-09-01T04:59:24.383Z,20.83
2022-09-01T05:01:54.365Z,20.78
2022-09-01T05:04:27.709Z,20.54
2022-09-01T05:07:01.138Z,20.69
2022-09-01T05:09:35.511Z,21.00
2022-09-01T05:12:12.869Z,21.12
2022-09-01T05:14:47.342Z,21.05
2022-09-01T05:17:14.590Z,20.77
2022-09-01T05:19:45.064Z,20.73
2022-09-01T05:22:13.218Z,20.79
2022-09-01T05:24:42.094Z,20.88
2022-09-01T05:27:12.293Z,21.11
2022-09-01T05:29:41.582Z,21.15
2022-09-01T05:32:12.616Z,21.13
2022-09-01T05:34:42.414Z,21.09
2022-09-01T05:37:09.293Z,20.95
2022-09-01T05:39:38.016Z,21.08
2022-09-01T05:42:09.102Z,21.21
2022-09-01T05:44:36.504Z,21.08
2022-09-01T05:47:03.567Z,21.13
2022-09-01T05:49:32.181Z,21.05
2022-09-01T05:51:59.056Z,21.11
2022-09-01T05:54:28.016Z,21.17
2022-09-01T05:57:08.166Z,21.13
2022-09-01T05:59:45.996Z,20.99
2022-09-01T06:02:12.716Z,21.33
2022-09-01T06:04:44.215Z,21.49
2022-09-01T06:07:16.649Z,21.05
2022-09-01T06:09:48.690Z,21.08
2022-09-01T06:12:23.422Z,21.05
2022-09-01T06:14:53.166Z,21.36
2022-09-01T06:17:24.703Z,21.14
2022-09-01T06:19:53.607Z,21.14
2022-09-01T06:22:20.825Z,21.42
2022-09-01T06:24:54.520Z,21.63
2022-09-01T06:27:23.513Z,21.28
2022-09-01T06:29:53.682Z,21.49
2022-09-01T06:32:20.719Z,21.46
2022-09-01T06:34:51.557Z,21.56
2022-09-01T06:37:22.915Z,21.71
2022-09-01T06:39:50.732Z,21.67
2022-09-01T06:42:17.926Z,21.65
2022-09-01T06:44:45.967Z,21.20
2022-09-01T06:47:13.051Z,21.44
2022-09-01T06:49:41.146Z,21.07
2022-09-01T06:52:08.981Z,21.31
2022-09-01T06:54:36.489Z,21.53
2022-09-01T06:59:52.472Z,21.27
2022-09-01T07:02:20.019Z,21.37
2022-09-01T07:04:52.207Z,21.42
2022-09-01T07:10:18.469Z,21.33
2022-09-01T07:18:27.511Z,21.61
2022-09-01T07:21:38.796Z,21.77
2022-09-01T07:23:46.675Z,22.04
2022-09-01T07:26:27.091Z,22.12
2022-09-01T07:29:01.681Z,21.54
2022-09-01T07:34:46.545Z,21.57
2022-09-01T07:45:30.778Z,21.80
2022-09-01T07:48:03.394Z,21.74
2022-09-01T07:50:41.438Z,21.88
2022-09-01T07:53:32.496Z,22.28
2022-09-01T07:56:07.335Z,22.69
2022-09-01T07:58:33.912Z,22.35
2022-09-01T08:01:02.625Z,22.37
2022-09-01T08:03:30.201Z,22.09
2022-09-01T08:06:06.127Z,21.97
2022-09-01T08:08:35.825Z,22.51
2022-09-01T08:11:04.616Z,22.16
2022-09-01T08:13:40.710Z,21.94
2022-09-01T08:16:16.977Z,21.73
2022-09-01T08:18:49.304Z,21.74
2022-09-01T08:21:18.418Z,21.79
2022-09-01T08:23:45.237Z,22.26
2022-09-01T08:26:14.733Z,22.40
2022-09-01T08:28:45.880Z,21.99
2022-09-01T08:31:17.944Z,22.12
2022-09-01T08:33:49.180Z,22.36
2022-09-01T08:36:20.214Z,22.58
2022-09-01T08:38:51.287Z,22.66
2022-09-01T08:41:28.710Z,22.22
2022-09-01T08:44:22.373Z,22.00
2022-09-01T08:46:52.883Z,22.28
2022-09-01T08:49:26.239Z,22.67
2022-09-01T08:52:07.951Z,22.57
2022-09-01T08:54:34.418Z,23.03
2022-09-01T08:57:05.871Z,22.82
2022-09-01T08:59:32.591Z,22.88
2022-09-01T09:01:59.979Z,22.50
2022-09-01T09:04:51.204Z,22.47
2022-09-01T09:07:29.639Z,22.91
2022-09-01T09:10:05.658Z,23.29
2022-09-01T09:12:51.441Z,22.55
2022-09-01T09:15:33.711Z,22.43
2022-09-01T09:18:20.159Z,22.75
2022-09-01T09:21:14.070Z,23.00
2022-09-01T09:23:45.502Z,22.88
2022-09-01T09:26:16.677Z,23.13
2022-09-01T09:28:50.055Z,23.01
2022-09-01T09:31:36.602Z,22.69
2022-09-01T09:34:04.117Z,23.08
2022-09-01T09:36:36.169Z,23.33
2022-09-01T09:39:14.209Z,23.39
2022-09-01T09:41:41.918Z,23.33
2022-09-01T09:44:11.568Z,23.69
2022-09-01T09:46:43.732Z,23.74
2022-09-01T09:49:35.921Z,23.91
2022-09-01T09:52:03.258Z,23.95
2022-09-01T09:54:34.662Z,23.70
2022-09-01T09:57:13.658Z,23.71
2022-09-01T10:00:03.292Z,24.00
2022-09-01T10:02:39.053Z,23.81
2022-09-01T10:05:30.163Z,24.20
2022-09-01T10:07:57.410Z,23.93
2022-09-01T10:10:34.665Z,24.32
2022-09-01T10:13:02.367Z,24.00
2022-09-01T10:15:32.232Z,24.03
2022-09-01T10:18:29.041Z,23.63
2022-09-01T10:21:02.913Z,23.56
2022-09-01T10:23:33.345Z,23.95
2022-09-01T10:26:09.794Z,24.03
2022-09-01T10:28:50.005Z,24.02
2022-09-01T10:31:17.991Z,24.28
2022-09-01T10:33:45.557Z,24.53
2022-09-01T10:36:14.363Z,24.39
2022-09-01T10:38:46.352Z,24.41
2022-09-01T10:41:59.659Z,24.60
2022-09-01T10:44:56.241Z,24.64
2022-09-01T10:47:29.431Z,24.86
2022-09-01T10:49:59.129Z,24.95
2022-09-01T10:52:41.382Z,24.64
2022-09-01T10:55:27.272Z,24.35
2022-09-01T10:59:30.386Z,23.76
2022-09-01T11:03:56.200Z,24.33
2022-09-01T11:06:42.193Z,24.57
2022-09-01T11:09:26.391Z,24.41
2022-09-01T11:12:16.498Z,24.41
2022-09-01T11:15:06.861Z,24.15
2022-09-01T11:17:37.987Z,24.29
2022-09-01T11:20:22.323Z,24.55
2022-09-01T11:22:59.953Z,24.44
2022-09-01T11:25:39.845Z,24.32
2022-09-01T11:28:06.799Z,24.39
2022-09-01T11:31:01.016Z,24.49
2022-09-01T11:33:53.439Z,24.63
2022-09-01T11:36:32.287Z,24.33
2022-09-01T11:39:30.203Z,24.24
2022-09-01T11:42:14.546Z,24.43
2022-09-01T11:44:59.807Z,24.74
2022-09-01T11:47:34.287Z,24.69
2022-09-01T11:50:04.668Z,24.45
2022-09-01T11:52:36.183Z,24.56
2022-09-01T11:55:05.780Z,24.69
2022-09-01T11:57:35.285Z,24.65
2022-09-01T12:00:07.657Z,24.62
2022-09-01T12:02:36.927Z,24.80
2022-09-01T12:05:24.848Z,24.88
2022-09-01T12:07:51.628Z,24.99
2022-09-01T12:10:29.956Z,25.03
2022-09-01T12:13:15.731Z,25.16
2022-09-01T12:16:07.095Z,25.19
2022-09-01T12:18:47.384Z,25.22
2022-09-01T12:21:38.283Z,25.49
2022-09-01T12:24:23.319Z,25.32
2022-09-01T12:26:54.295Z,25.28
2022-09-01T12:29:23.237Z,25.52
2022-09-01T12:31:52.558Z,25.77
2022-09-01T12:34:50.022Z,25.82
2022-09-01T12:37:16.535Z,25.86
2022-09-01T12:39:46.312Z,25.67
2022-09-01T12:42:27.495Z,25.70
2022-09-01T12:44:58.592Z,25.73
2022-09-01T12:47:34.745Z,25.92
2022-09-01T12:50:06.162Z,25.83
2022-09-01T12:52:35.594Z,26.05
2022-09-01T12:55:03.721Z,26.28
2022-09-01T12:57:34.460Z,26.28
2022-09-01T13:00:21.171Z,26.41
2022-09-01T13:02:49.742Z,26.25
2022-09-01T13:05:41.548Z,26.44
2022-09-01T13:08:14.749Z,26.39
2022-09-01T13:10:44.985Z,26.26
2022-09-01T13:13:12.945Z,26.32
2022-09-01T13:15:45.396Z,26.47
2022-09-01T13:18:12.177Z,26.38
2022-09-01T13:20:38.695Z,26.55
2022-09-01T13:23:05.345Z,26.71
2022-09-01T13:25:31.916Z,26.98
2022-09-01T13:28:00.381Z,26.70
2022-09-01T13:30:28.569Z,26.96
2022-09-01T13:35:42.760Z,27.01
2022-09-01T13:38:09.809Z,27.07
2022-09-01T13:40:36.742Z,26.97
2022-09-01T13:43:06.364Z,27.11
2022-09-01T13:45:33.709Z,26.97
2022-09-01T13:48:17.018Z,27.06
2022-09-01T13:53:37.042Z,27.29
2022-09-01T13:56:04.063Z,27.13
2022-09-01T13:58:30.929Z,27.10
2022-09-01T14:00:59.529Z,27.22
2022-09-01T14:03:26.265Z,27.23
2022-09-01T14:05:54.074Z,27.31
2022-09-01T14:08:22.861Z,27.31
2022-09-01T14:10:51.963Z,27.31
2022-09-01T14:13:23.816Z,27.38
2022-09-01T14:15:53.389Z,27.46
2022-09-01T14:18:21.747Z,27.61
2022-09-01T14:20:51.214Z,27.54
2022-09-01T14:23:19.018Z,27.60
2022-09-01T14:25:48.812Z,27.62
2022-09-01T14:28:16.635Z,27.52
2022-09-01T14:30:47.511Z,27.43
2022-09-01T14:33:14.219Z,27.49
2022-09-01T14:35:43.732Z,27.61
2022-09-01T14:38:11.741Z,27.60
2022-09-01T14:40:39.537Z,27.77
2022-09-01T14:43:09.837Z,27.87
2022-09-01T14:45:39.628Z,27.74
2022-09-01T14:48:09.691Z,27.80
2022-09-01T14:50:41.304Z,27.81
2022-09-01T14:53:08.949Z,27.82
2022-09-01T14:55:35.753Z,28.05
2022-09-01T14:58:02.706Z,28.13
2022-09-01T15:00:31.496Z,28.15
2022-09-01T15:02:58.565Z,28.12
2022-09-01T15:05:25.331Z,28.02
2022-09-01T15:07:53.333Z,27.86
2022-09-01T15:10:25.191Z,27.82
2022-09-01T15:12:53.984Z,28.22
2022-09-01T15:15:21.603Z,27.81
2022-09-01T15:17:48.434Z,27.95
2022-09-01T15:20:33.827Z,28.06
2022-09-01T15:23:01.267Z,28.04
2022-09-01T15:25:28.197Z,28.16
2022-09-01T15:27:54.837Z,27.90
2022-09-01T15:30:21.883Z,28.21
2022-09-01T15:32:51.302Z,28.05
2022-09-01T15:35:19.273Z,28.22
2022-09-01T15:37:48.037Z,28.36
2022-09-01T15:40:15.330Z,28.46
2022-09-01T15:42:43.003Z,28.16
2022-09-01T15:45:13.383Z,28.20
2022-09-01T15:47:44.922Z,28.22
2022-09-01T15:50:18.334Z,28.23
2022-09-01T15:52:51.015Z,28.06
2022-09-01T15:55:20.267Z,28.08
2022-09-01T15:57:47.141Z,28.31
2022-09-01T16:00:15.330Z,28.14
2022-09-01T16:02:42.510Z,28.50
2022-09-01T16:05:10.444Z,28.52
2022-09-01T16:07:36.995Z,28.39
2022-09-01T16:10:06.253Z,28.60
2022-09-01T16:12:35.734Z,28.77
2022-09-01T16:15:05.533Z,28.72
2022-09-01T16:18:05.860Z,28.47
2022-09-01T16:21:11.925Z,28.33
2022-09-01T16:23:46.104Z,28.53
2022-09-01T16:26:13.166Z,28.53
2022-09-01T16:28:45.032Z,28.46
2022-09-01T16:31:21.109Z,28.72
2022-09-01T16:33:56.052Z,28.88
2022-09-01T16:36:49.183Z,29.32
2022-09-01T16:39:54.605Z,28.89
2022-09-01T16:42:36.073Z,29.34
2022-09-01T16:45:44.356Z,28.44
2022-09-01T16:48:25.647Z,28.58
2022-09-01T16:51:01.246Z,28.85
2022-09-01T16:53:48.594Z,29.21
2022-09-01T16:56:32.029Z,29.14
2022-09-01T16:59:11.995Z,28.96
2022-09-01T17:01:52.408Z,29.24
2022-09-01T17:04:36.790Z,29.07
2022-09-01T17:07:08.405Z,28.94
2022-09-01T17:09:41.210Z,28.70
2022-09-01T17:12:37.268Z,28.22
2022-09-01T17:15:17.831Z,28.50
2022-09-01T17:18:23.031Z,28.77
2022-09-01T17:20:58.018Z,28.45
2022-09-01T17:23:28.961Z,28.51
2022-09-01T17:26:01.599Z,28.41
2022-09-01T17:28:43.973Z,28.17
2022-09-01T17:31:22.107Z,28.32
2022-09-01T17:34:07.646Z,28.34
2022-09-01T17:36:48.036Z,28.42
2022-09-01T17:39:18.175Z,28.05
2022-09-01T17:42:02.860Z,27.98
2022-09-01T17:44:35.786Z,27.94
2022-09-01T17:47:11.961Z,27.69
2022-09-01T17:49:53.778Z,27.76
2022-09-01T17:53:10.356Z,27.51
2022-09-01T17:55:40.025Z,27.71
2022-09-01T17:58:21.359Z,27.74
2022-09-01T18:01:26.371Z,27.60
2022-09-01T18:04:14.801Z,27.38
2022-09-01T18:07:38.260Z,27.43
2022-09-01T18:10:08.470Z,27.57
2022-09-01T18:12:37.689Z,27.52
2022-09-01T18:15:10.932Z,27.52
2022-09-01T18:17:45.569Z,27.55
2022-09-01T18:20:26.256Z,27.26
2022-09-01T18:23:05.584Z,27.31
2022-09-01T18:25:40.613Z,27.28
2022-09-01T18:28:07.640Z,27.30
2022-09-01T18:30:59.557Z,27.27
2022-09-01T18:33:32.967Z,27.06
2022-09-01T18:36:17.836Z,27.06
2022-09-01T18:38:55.238Z,27.03
2022-09-01T18:41:21.713Z,27.10
2022-09-01T18:43:54.096Z,27.05
2022-09-01T18:46:35.874Z,26.97
2022-09-01T18:49:09.331Z,26.95
2022-09-01T18:51:51.887Z,26.89
2022-09-01T18:54:27.181Z,26.74
2022-09-01T18:57:06.170Z,26.66
2022-09-01T18:59:52.151Z,26.72
2022-09-01T19:02:27.535Z,26.78
2022-09-01T19:04:59.780Z,26.84
2022-09-01T19:07:45.090Z,26.81
2022-09-01T19:10:24.234Z,26.86
2022-09-01T19:12:56.886Z,26.73
2022-09-01T19:16:13.667Z,26.73
2022-09-01T19:18:48.558Z,26.73
2022-09-01T19:21:27.822Z,26.60
2022-09-01T19:24:10.920Z,26.60
2022-09-01T19:26:47.877Z,26.60
2022-09-01T19:29:24.226Z,26.71
2022-09-01T19:31:57.700Z,26.73
2022-09-01T19:34:32.498Z,26.68
2022-09-01T19:37:02.003Z,26.56
2022-09-01T19:39:36.078Z,26.59
2022-09-01T19:42:20.426Z,26.59
2022-09-01T19:45:24.903Z,26.49
2022-09-01T19:48:11.133Z,26.56
2022-09-01T19:50:44.578Z,26.42
2022-09-01T19:53:40.329Z,26.49
2022-09-01T19:56:10.095Z,26.48
2022-09-01T19:58:48.778Z,26.51
2022-09-01T20:01:21.540Z,26.41
2022-09-01T20:03:57.856Z,26.31
2022-09-01T20:06:33.690Z,26.33
2022-09-01T20:09:14.523Z,26.37
2022-09-01T20:11:47.727Z,26.24
2022-09-01T20:14:48.021Z,26.31
2022-09-01T20:17:22.951Z,26.26
2022-09-01T20:19:57.192Z,26.22
2022-09-01T20:22:31.138Z,26.24
2022-09-01T20:25:09.779Z,26.21
2022-09-01T20:27:51.135Z,26.08
2022-09-01T20:30:27.505Z,26.08
2022-09-01T20:33:10.690Z,26.08
2022-09-01T20:36:04.068Z,26.12
2022-09-01T20:38:55.473Z,26.09
2022-09-01T20:41:43.301Z,26.08
2022-09-01T20:44:27.545Z,26.15
2022-09-01T20:46:54.278Z,26.15
2022-09-01T20:49:22.326Z,26.15
2022-09-01T20:52:01.134Z,26.13
2022-09-01T20:54:50.162Z,26.09
2022-09-01T20:57:35.204Z,26.15
2022-09-01T21:00:18.582Z,26.05
2022-09-01T21:03:06.046Z,26.01
2022-09-01T21:05:55.206Z,25.90
2022-09-01T21:08:43.262Z,25.88
2022-09-01T21:11:15.970Z,25.82
2022-09-01T21:13:49.134Z,25.76
2022-09-01T21:16:26.602Z,25.79
2022-09-01T21:19:05.446Z,25.79
2022-09-01T21:21:38.422Z,25.80
2022-09-01T21:24:05.615Z,25.78
2022-09-01T21:26:36.434Z,25.82
2022-09-01T21:29:18.579Z,25.98
2022-09-01T21:31:46.924Z,25.93
2022-09-01T21:34:16.849Z,25.89
2022-09-01T21:36:43.718Z,25.79
2022-09-01T21:39:10.304Z,25.72
2022-09-01T21:41:39.186Z,25.76
2022-09-01T21:44:06.192Z,25.85
2022-09-01T21:46:32.956Z,25.84
2022-09-01T21:48:59.850Z,25.80
2022-09-01T21:51:26.849Z,25.84
2022-09-01T21:53:53.389Z,25.80
2022-09-01T21:56:20.043Z,25.74
2022-09-01T21:58:52.544Z,25.72
2022-09-01T22:01:19.106Z,25.74
2022-09-01T22:03:45.705Z,25.69
2022-09-01T22:06:12.847Z,25.68
2022-09-01T22:08:39.640Z,25.59
2022-09-01T22:11:10.126Z,25.54
2022-09-01T22:13:36.888Z,25.53
2022-09-01T22:16:03.780Z,25.58
2022-09-01T22:18:30.641Z,25.50
2022-09-01T22:21:09.671Z,25.40
2022-09-01T22:23:37.850Z,25.33
2022-09-01T22:26:05.399Z,25.31
2022-09-01T22:28:32.455Z,25.36
2022-09-01T22:30:59.759Z,25.37
2022-09-01T22:33:26.415Z,25.33
2022-09-01T22:35:56.560Z,25.34
2022-09-01T22:38:23.712Z,25.30
2022-09-01T22:40:59.552Z,25.27
2022-09-01T22:43:27.720Z,25.28
2022-09-01T22:45:55.600Z,25.30
2022-09-01T22:48:24.888Z,25.32
2022-09-01T22:50:52.528Z,25.35
2022-09-01T22:53:21.525Z,25.32
2022-09-01T22:55:50.651Z,25.29
2022-09-01T22:58:18.416Z,25.22
2022-09-01T23:00:48.807Z,25.22
2022-09-01T23:03:16.663Z,25.23
2022-09-01T23:05:44.454Z,25.23
2022-09-01T23:08:11.786Z,25.30
2022-09-01T23:10:39.277Z,25.30
2022-09-01T23:13:06.245Z,25.25
2022-09-01T23:15:33.729Z,25.27
2022-09-01T23:18:00.354Z,25.27
2022-09-01T23:20:27.710Z,25.37
2022-09-01T23:22:54.343Z,25.29
2022-09-01T23:25:21.144Z,25.20
2022-09-01T23:27:47.806Z,25.24
2022-09-01T23:30:15.462Z,25.20
2022-09-01T23:32:42.414Z,25.20
2022-09-01T23:35:09.725Z,25.17
2022-09-01T23:37:36.424Z,25.08
2022-09-01T23:40:04.828Z,25.18
2022-09-01T23:42:31.410Z,25.24
2022-09-01T23:44:57.950Z,25.21
2022-09-01T23:47:24.515Z,25.26
2022-09-01T23:49:51.068Z,25.21
2022-09-01T23:52:17.638Z,25.08
2022-09-01T23:54:44.242Z,25.11
2022-09-01T23:57:11.840Z,25.27
2022-09-01T23:59:38.476Z,25.20
